Station Historical Data
Daily Summary for August 13, 2017 Units:  Metric    English   Both
« Previous Day
Next Day »
Daily Weekly Monthly Yearly Custom
  High: Low: Average:
Temperature: 25.7 °C 14 °C 20.2 °C
Dew Point: 17.4 °C 12.9 °C 14.9 °C
Humidity: 95% 51% 74%
Wind Speed: 12.9km/h 0km/h 2.3km/h
Wind Gust: 17.7km/h - -
Wind- - WSW
Pressure: 1017.2 hPa 1012.8 hPa -
Precipitation: 0 mm    
Historical Graphs
 
 
Tabular Data for August 13, 2017
Time Temperature Dew Point Pressure Wind Wind Speed Wind Gust Humidity Rainfall Rate (Hourly)
00:04 17.8 °C 16 °C 1012.8 hPa NNW 3.2 km/h 9.7 km/h 89% 0 mm
00:09 17.8 °C 15.8 °C 1012.8 hPa NNW 3.2 km/h 9.7 km/h 88% 0 mm
00:14 17.8 °C 15.8 °C 1012.8 hPa Calm   4.8 km/h 88% 0 mm
00:19 17.6 °C 15.6 °C 1012.8 hPa Calm     88% 0 mm
00:24 17.6 °C 15.6 °C 1012.8 hPa Calm     88% 0 mm
00:29 17.4 °C 15.4 °C 1012.8 hPa Calm     88% 0 mm
00:34 17.3 °C 15.3 °C 1012.8 hPa Calm     88% 0 mm
00:39 17.2 °C 15.4 °C 1012.8 hPa Calm     89% 0 mm
00:44 17.1 °C 15.3 °C 1012.8 hPa Calm     89% 0 mm
00:49 17 °C 15.2 °C 1013.1 hPa Calm     89% 0 mm
00:54 16.9 °C 15.2 °C 1013.1 hPa Calm     90% 0 mm
00:59 16.8 °C 15.1 °C 1013.1 hPa Calm     90% 0 mm
01:04 16.7 °C 15.1 °C 1013.1 hPa Calm     90% 0 mm
01:09 16.7 °C 15 °C 1013.1 hPa Calm     90% 0 mm
01:14 16.6 °C 15.1 °C 1013.1 hPa Calm     91% 0 mm
01:19 16.5 °C 15 °C 1013.1 hPa Calm     91% 0 mm
01:24 16.4 °C 14.9 °C 1013.1 hPa Calm     91% 0 mm
01:29 16.4 °C 14.9 °C 1013.1 hPa Calm     91% 0 mm
01:34 16.3 °C 14.8 °C 1013.1 hPa Calm     91% 0 mm
01:39 16.3 °C 14.8 °C 1013.1 hPa Calm     91% 0 mm
01:44 16.2 °C 14.9 °C 1013.4 hPa Calm     92% 0 mm
01:49 16.2 °C 14.9 °C 1013.4 hPa Calm     92% 0 mm
01:54 16.2 °C 14.9 °C 1013.4 hPa Calm     92% 0 mm
01:59 16.2 °C 14.9 °C 1013.4 hPa Calm     92% 0 mm
02:04 16.2 °C 14.9 °C 1013.4 hPa Calm     92% 0 mm
02:09 16.3 °C 15 °C 1013.4 hPa Calm     92% 0 mm
02:14 16.2 °C 14.9 °C 1013.4 hPa Calm     92% 0 mm
02:19 16.2 °C 14.9 °C 1013.8 hPa Calm     92% 0 mm
02:24 16.1 °C 14.8 °C 1013.8 hPa Calm     92% 0 mm
02:29 16.1 °C 14.8 °C 1013.8 hPa Calm     92% 0 mm
02:34 16 °C 14.7 °C 1013.8 hPa Calm     92% 0 mm
02:39 16 °C 14.7 °C 1013.8 hPa Calm     92% 0 mm
02:44 15.9 °C 14.7 °C 1013.8 hPa Calm     92% 0 mm
02:49 15.9 °C 14.7 °C 1013.8 hPa Calm     92% 0 mm
02:54 15.9 °C 14.7 °C 1013.8 hPa Calm     92% 0 mm
02:59 16 °C 14.7 °C 1013.8 hPa Calm     92% 0 mm
03:04 16 °C 14.7 °C 1013.8 hPa Calm     92% 0 mm
03:09 16 °C 14.7 °C 1013.8 hPa Calm     92% 0 mm
03:14 15.9 °C 14.6 °C 1013.8 hPa Calm     92% 0 mm
03:19 15.8 °C 14.6 °C 1013.8 hPa Calm     92% 0 mm
03:24 15.7 °C 14.4 °C 1013.8 hPa Calm     92% 0 mm
03:29 15.6 °C 14.3 °C 1013.8 hPa Calm     92% 0 mm
03:34 15.6 °C 14.3 °C 1013.8 hPa Calm     92% 0 mm
03:39 15.6 °C 14.3 °C 1013.8 hPa Calm     92% 0 mm
03:44 15.5 °C 14.2 °C 1013.8 hPa Calm     92% 0 mm
03:49 15.4 °C 14.1 °C 1013.8 hPa Calm     92% 0 mm
03:54 15.3 °C 14.1 °C 1013.8 hPa Calm     92% 0 mm
03:59 15.3 °C 14 °C 1014.1 hPa Calm     92% 0 mm
04:04 15.2 °C 13.9 °C 1014.1 hPa Calm     92% 0 mm
04:09 15.1 °C 13.8 °C 1014.1 hPa Calm     92% 0 mm
04:14 15.1 °C 13.8 °C 1014.1 hPa Calm     92% 0 mm
04:19 15.1 °C 14 °C 1014.1 hPa Calm     93% 0 mm
04:24 15.1 °C 13.9 °C 1014.1 hPa Calm     93% 0 mm
04:29 15.1 °C 13.9 °C 1014.1 hPa Calm     93% 0 mm
04:34 15 °C 13.9 °C 1014.1 hPa Calm     93% 0 mm
04:39 15 °C 13.9 °C 1014.1 hPa Calm     93% 0 mm
04:44 15 °C 13.9 °C 1014.1 hPa Calm     93% 0 mm
04:49 14.9 °C 13.8 °C 1014.1 hPa Calm     93% 0 mm
04:54 14.8 °C 13.7 °C 1014.1 hPa Calm     93% 0 mm
04:59 14.8 °C 13.7 °C 1014.1 hPa Calm     93% 0 mm
05:04 14.8 °C 13.7 °C 1014.1 hPa Calm     93% 0 mm
05:09 14.7 °C 13.6 °C 1014.1 hPa Calm     93% 0 mm
05:14 14.6 °C 13.5 °C 1014.1 hPa Calm     93% 0 mm
05:19 14.6 °C 13.5 °C 1014.1 hPa Calm     93% 0 mm
05:24 14.6 °C 13.5 °C 1014.1 hPa Calm     93% 0 mm
05:29 14.6 °C 13.4 °C 1014.1 hPa Calm     93% 0 mm
05:34 14.5 °C 13.4 °C 1014.4 hPa Calm     93% 0 mm
05:39 14.4 °C 13.3 °C 1014.4 hPa Calm     93% 0 mm
05:44 14.3 °C 13.2 °C 1014.4 hPa Calm     93% 0 mm
05:49 14.3 °C 13.2 °C 1014.8 hPa Calm     93% 0 mm
05:54 14.3 °C 13.2 °C 1014.8 hPa Calm     93% 0 mm
05:59 14.2 °C 13.1 °C 1014.8 hPa Calm     93% 0 mm
06:04 14.2 °C 13.1 °C 1015.1 hPa Calm     93% 0 mm
06:09 14.1 °C 12.9 °C 1015.1 hPa Calm     93% 0 mm
06:14 14.1 °C 12.9 °C 1015.1 hPa Calm     93% 0 mm
06:19 14.1 °C 13.1 °C 1015.5 hPa Calm     94% 0 mm
06:24 14 °C 12.9 °C 1015.5 hPa Calm     93% 0 mm
06:29 14.1 °C 13.1 °C 1015.5 hPa Calm     94% 0 mm
06:34 14.2 °C 13.2 °C 1015.5 hPa Calm     94% 0 mm
06:39 14.2 °C 13.2 °C 1015.5 hPa Calm     94% 0 mm
06:44 14.2 °C 13.1 °C 1015.5 hPa Calm     93% 0 mm
06:49 14.3 °C 13.3 °C 1015.5 hPa Calm     94% 0 mm
06:54 14.3 °C 13.4 °C 1015.8 hPa Calm     94% 0 mm
06:59 14.4 °C 13.5 °C 1015.8 hPa Calm     94% 0 mm
07:04 14.6 °C 13.7 °C 1015.8 hPa Calm     94% 0 mm
07:09 14.8 °C 13.8 °C 1015.8 hPa Calm     94% 0 mm
07:14 14.9 °C 14 °C 1015.8 hPa Calm     94% 0 mm
07:19 15.3 °C 14.5 °C 1015.8 hPa Calm     95% 0 mm
07:24 15.5 °C 14.6 °C 1015.8 hPa Calm     94% 0 mm
07:29 15.8 °C 15 °C 1015.8 hPa Calm     95% 0 mm
07:34 16 °C 15.2 °C 1015.8 hPa Calm     95% 0 mm
07:39 16.2 °C 15.2 °C 1015.8 hPa Calm     94% 0 mm
07:44 16.3 °C 15.5 °C 1015.8 hPa Calm     95% 0 mm
07:49 16.4 °C 15.4 °C 1015.8 hPa Calm     94% 0 mm
07:54 16.6 °C 15.6 °C 1015.8 hPa Calm     94% 0 mm
07:59 16.7 °C 15.8 °C 1015.8 hPa Calm     94% 0 mm
08:04 16.8 °C 15.9 °C 1016.1 hPa Calm     94% 0 mm
08:09 17.1 °C 16.1 °C 1016.1 hPa Calm     94% 0 mm
08:14 17.5 °C 16.5 °C 1016.1 hPa Calm     94% 0 mm
08:19 17.8 °C 16.7 °C 1016.1 hPa Calm     93% 0 mm
08:24 18.1 °C 16.8 °C 1015.8 hPa Calm     92% 0 mm
08:29 18.4 °C 16.9 °C 1015.8 hPa Calm     91% 0 mm
08:34 19.1 °C 17.1 °C 1016.1 hPa Calm     88% 0 mm
08:39 19.1 °C 16.9 °C 1016.1 hPa Calm     87% 0.25 mm
08:44 19.1 °C 16.8 °C 1016.1 hPa Calm     87% 0.25 mm
08:49 19.3 °C 17.1 °C 1016.1 hPa Calm     87% 0.25 mm
08:54 19.6 °C 16.9 °C 1016.1 hPa Calm     85% 0.25 mm
08:59 19.6 °C 16.8 °C 1016.1 hPa Calm     84% 0.25 mm
09:04 19.7 °C 16.9 °C 1016.1 hPa Calm     84% 0.25 mm
09:09 20.1 °C 16.9 °C 1016.1 hPa Calm     82% 0.25 mm
09:14 20.2 °C 16.6 °C 1016.1 hPa Calm   4.8 km/h 80% 0.25 mm
09:19 20.6 °C 17.1 °C 1016.1 hPa South 1.6 km/h 4.8 km/h 80% 0.25 mm
09:24 20.6 °C 16.8 °C 1016.1 hPa SSE 3.2 km/h 6.4 km/h 79% 0.25 mm
09:29 20.7 °C 16.7 °C 1016.5 hPa Calm   6.4 km/h 78% 0.25 mm
09:34 21.1 °C 16.9 °C 1016.1 hPa SSE 4.8 km/h 4.8 km/h 77% 0.25 mm
09:44 21.7 °C 17.1 °C 1016.5 hPa SSE 1.6 km/h 4.8 km/h 75% 0 mm
09:49 21.7 °C 16.4 °C 1016.5 hPa East 1.6 km/h 6.4 km/h 72% 0 mm
09:54 21.7 °C 16.4 °C 1016.5 hPa Calm   6.4 km/h 72% 0 mm
09:59 22.3 °C 17.1 °C 1016.5 hPa NW 3.2 km/h 6.4 km/h 72% 0 mm
10:04 22.6 °C 15.9 °C 1016.5 hPa Calm   4.8 km/h 66% 0 mm
10:09 22.2 °C 15.7 °C 1016.5 hPa NW 1.6 km/h 4.8 km/h 67% 0 mm
10:14 22.6 °C 15.7 °C 1016.5 hPa Calm     65% 0 mm
10:19 22.8 °C 14.9 °C 1016.8 hPa Calm   6.4 km/h 61% 0 mm
10:24 23.2 °C 16.5 °C 1016.8 hPa Calm   6.4 km/h 66% 0 mm
10:29 23.2 °C 15.5 °C 1016.8 hPa WSW 6.4 km/h 8 km/h 62% 0 mm
10:34 23.4 °C 16 °C 1016.8 hPa West 8 km/h 8 km/h 63% 0 mm
10:39 23.6 °C 15.1 °C 1016.8 hPa WNW 6.4 km/h 12.9 km/h 59% 0 mm
10:44 23.1 °C 15.9 °C 1016.8 hPa WNW 4.8 km/h 12.9 km/h 64% 0 mm
10:49 22.8 °C 14.7 °C 1016.8 hPa West 4.8 km/h 9.7 km/h 60% 0 mm
10:54 22.4 °C 14.3 °C 1016.8 hPa WNW 3.2 km/h 8 km/h 60% 0 mm
10:59 22.2 °C 14.3 °C 1016.8 hPa Calm   9.7 km/h 61% 0 mm
11:04 22.3 °C 14.4 °C 1016.8 hPa WNW 3.2 km/h 3.2 km/h 61% 0 mm
11:09 22.7 °C 14.6 °C 1016.8 hPa Calm   8 km/h 60% 0 mm
11:14 23.3 °C 14.6 °C 1017.2 hPa Calm   6.4 km/h 58% 0 mm
11:19 23.6 °C 16.6 °C 1017.2 hPa WSW 3.2 km/h 9.7 km/h 65% 0 mm
11:24 23.6 °C 16.6 °C 1016.8 hPa West 4.8 km/h 9.7 km/h 65% 0 mm
11:29 22.8 °C 15.8 °C 1016.8 hPa West 8 km/h 11.3 km/h 65% 0 mm
11:34 22.4 °C 15.9 °C 1017.2 hPa Calm   9.7 km/h 67% 0 mm
11:39 22.3 °C 15.8 °C 1017.2 hPa WSW 1.6 km/h 6.4 km/h 67% 0 mm
11:44 22.4 °C 16.2 °C 1017.2 hPa SW 3.2 km/h 8 km/h 68% 0 mm
11:49 22.7 °C 16.1 °C 1016.8 hPa SW 4.8 km/h 11.3 km/h 66% 0 mm
11:54 22.7 °C 16.1 °C 1016.8 hPa SW 4.8 km/h 11.3 km/h 66% 0 mm
11:59 23 °C 16.8 °C 1016.8 hPa SW 3.2 km/h 11.3 km/h 68% 0 mm
12:04 23.4 °C 16.4 °C 1016.8 hPa SW 3.2 km/h 6.4 km/h 65% 0 mm
12:09 22.9 °C 15.7 °C 1016.8 hPa SSW 3.2 km/h 8 km/h 64% 0 mm
12:14 22.9 °C 14.2 °C 1016.8 hPa SW 3.2 km/h 11.3 km/h 58% 0 mm
12:19 23.3 °C 14.9 °C 1016.8 hPa WSW 4.8 km/h 11.3 km/h 59% 0 mm
12:24 23.9 °C 15.4 °C 1016.8 hPa SSW 3.2 km/h 6.4 km/h 59% 0 mm
12:29 24.2 °C 14.3 °C 1016.8 hPa South 1.6 km/h 8 km/h 54% 0 mm
12:34 24.1 °C 15.8 °C 1016.8 hPa WSW 1.6 km/h 6.4 km/h 60% 0 mm
12:39 23.9 °C 16.4 °C 1016.8 hPa North 8 km/h 9.7 km/h 63% 0 mm
12:44 24.2 °C 15.2 °C 1016.8 hPa Calm   9.7 km/h 57% 0 mm
12:49 24.9 °C 16.1 °C 1016.8 hPa WNW 3.2 km/h 12.9 km/h 58% 0 mm
12:54 24.7 °C 14.7 °C 1016.8 hPa West 4.8 km/h 12.9 km/h 54% 0 mm
12:59 24.2 °C 14.8 °C 1016.8 hPa West 4.8 km/h 11.3 km/h 56% 0 mm
13:04 24.8 °C 17 °C 1016.8 hPa WSW 4.8 km/h 12.9 km/h 62% 0 mm
13:09 24.4 °C 16.4 °C 1016.5 hPa West 9.7 km/h 12.9 km/h 61% 0 mm
13:14 24.8 °C 16.5 °C 1016.5 hPa SW 9.7 km/h 14.5 km/h 60% 0 mm
13:19 24.3 °C 16.3 °C 1016.5 hPa WNW 8 km/h 11.3 km/h 61% 0 mm
13:24 24.2 °C 16.2 °C 1016.5 hPa WSW 4.8 km/h 12.9 km/h 61% 0 mm
13:29 24.7 °C 17.4 °C 1016.5 hPa WSW 4.8 km/h 11.3 km/h 64% 0 mm
13:34 25.1 °C 16.7 °C 1016.5 hPa WSW 4.8 km/h 8 km/h 60% 0 mm
13:39 25.1 °C 16.6 °C 1016.5 hPa West 6.4 km/h 14.5 km/h 59% 0 mm
13:44 25.3 °C 16.5 °C 1016.5 hPa SW 4.8 km/h 12.9 km/h 58% 0 mm
13:49 24.9 °C 15.8 °C 1016.5 hPa SW 6.4 km/h 14.5 km/h 57% 0 mm
13:54 24.9 °C 16.1 °C 1016.5 hPa SW 6.4 km/h 16.1 km/h 58% 0 mm
13:59 25.4 °C 17.4 °C 1016.5 hPa WSW 6.4 km/h 16.1 km/h 61% 0 mm
14:04 25.2 °C 15.6 °C 1016.5 hPa West 6.4 km/h 12.9 km/h 55% 0 mm
14:09 25.2 °C 15.5 °C 1016.5 hPa WSW 4.8 km/h 16.1 km/h 55% 0 mm
14:14 25.1 °C 15.4 °C 1016.5 hPa SW 6.4 km/h 16.1 km/h 55% 0 mm
14:19 25.2 °C 15.8 °C 1016.5 hPa SW 1.6 km/h 8 km/h 56% 0 mm
14:24 25.3 °C 15.6 °C 1016.5 hPa WNW 8 km/h 11.3 km/h 55% 0 mm
14:29 25.2 °C 15.6 °C 1016.5 hPa WSW 12.9 km/h 12.9 km/h 55% 0 mm
14:34 25.2 °C 16.1 °C 1016.5 hPa West 8 km/h 16.1 km/h 57% 0 mm
14:39 25.1 °C 15.4 °C 1016.5 hPa SW 6.4 km/h 14.5 km/h 55% 0 mm
14:44 25.1 °C 16 °C 1016.5 hPa WNW 4.8 km/h 12.9 km/h 57% 0 mm
14:49 25.2 °C 15.8 °C 1016.5 hPa SSW 11.3 km/h 16.1 km/h 56% 0 mm
14:54 25.2 °C 16.1 °C 1016.5 hPa WSW 6.4 km/h 11.3 km/h 57% 0 mm
14:59 25.4 °C 15.4 °C 1016.5 hPa SW 6.4 km/h 16.1 km/h 54% 0 mm
15:04 25.3 °C 15.9 °C 1016.5 hPa WSW 8 km/h 16.1 km/h 56% 0 mm
15:09 25.6 °C 16.1 °C 1016.8 hPa WSW 8 km/h 16.1 km/h 56% 0 mm
15:14 25.6 °C 16.7 °C 1016.8 hPa West 8 km/h 17.7 km/h 58% 0 mm
15:19 25.4 °C 15.7 °C 1016.5 hPa WNW 11.3 km/h 12.9 km/h 55% 0 mm
15:24 25.7 °C 15.1 °C 1016.5 hPa SW 3.2 km/h 12.9 km/h 52% 0 mm
15:29 25.6 °C 15.6 °C 1016.5 hPa WSW 9.7 km/h 17.7 km/h 54% 0 mm
15:34 25.7 °C 15.1 °C 1016.5 hPa WSW 6.4 km/h 17.7 km/h 52% 0 mm
15:39 25.4 °C 15.4 °C 1016.5 hPa West 8 km/h 14.5 km/h 54% 0 mm
15:44 25.5 °C 15.2 °C 1016.5 hPa WSW 8 km/h 16.1 km/h 53% 0 mm
15:49 25.1 °C 14.2 °C 1016.5 hPa SW 12.9 km/h 16.1 km/h 51% 0 mm
15:54 25 °C 15.3 °C 1016.5 hPa West 11.3 km/h 12.9 km/h 55% 0 mm
15:59 24.9 °C 15 °C 1016.5 hPa WNW 4.8 km/h 14.5 km/h 54% 0 mm
16:04 25.1 °C 15.1 °C 1016.8 hPa WSW 6.4 km/h 14.5 km/h 54% 0 mm
16:09 25.2 °C 15.2 °C 1016.8 hPa WSW 6.4 km/h 14.5 km/h 54% 0 mm
16:14 25.2 °C 15.5 °C 1016.8 hPa WSW 6.4 km/h 14.5 km/h 55% 0 mm
16:19 25.2 °C 15.3 °C 1016.8 hPa WSW 9.7 km/h 12.9 km/h 54% 0 mm
16:24 25.5 °C 15.5 °C 1016.8 hPa WSW 6.4 km/h 12.9 km/h 54% 0 mm
16:29 25.4 °C 14.6 °C 1016.8 hPa SW 6.4 km/h 16.1 km/h 51% 0 mm
16:34 25.4 °C 15.1 °C 1016.8 hPa WSW 8 km/h 16.1 km/h 53% 0 mm
16:39 25.4 °C 14.8 °C 1016.8 hPa West 6.4 km/h 14.5 km/h 52% 0 mm
16:44 25.4 °C 15.2 °C 1016.8 hPa WSW 6.4 km/h 12.9 km/h 53% 0 mm
16:49 25.2 °C 14.6 °C 1016.8 hPa WSW 8 km/h 16.1 km/h 52% 0 mm
16:54 24.9 °C 14.4 °C 1016.5 hPa WSW 8 km/h 16.1 km/h 52% 0 mm
16:59 25.1 °C 15.1 °C 1016.8 hPa West 9.7 km/h 16.1 km/h 54% 0 mm
17:04 24.7 °C 14.2 °C 1016.8 hPa WSW 4.8 km/h 12.9 km/h 52% 0 mm
17:09 24.4 °C 14.6 °C 1016.8 hPa SW 9.7 km/h 12.9 km/h 54% 0 mm
17:14 24.3 °C 14.4 °C 1016.8 hPa SW 11.3 km/h 12.9 km/h 54% 0 mm
17:19 24.7 °C 14.5 °C 1016.8 hPa WSW 8 km/h 11.3 km/h 53% 0 mm
17:24 24.9 °C 14.3 °C 1016.8 hPa WSW 3.2 km/h 12.9 km/h 52% 0 mm
17:29 24.8 °C 14.6 °C 1016.8 hPa West 3.2 km/h 14.5 km/h 53% 0 mm
17:34 24.8 °C 14.8 °C 1016.5 hPa West 6.4 km/h 11.3 km/h 54% 0 mm
17:39 24.7 °C 14.7 °C 1016.5 hPa WSW 6.4 km/h 12.9 km/h 54% 0 mm
17:44 24.6 °C 14.1 °C 1016.5 hPa WSW 6.4 km/h 12.9 km/h 52% 0 mm
17:49 24.8 °C 14.6 °C 1016.5 hPa WSW 4.8 km/h 11.3 km/h 53% 0 mm
17:54 24.7 °C 14.4 °C 1016.5 hPa West 4.8 km/h 11.3 km/h 53% 0 mm
17:59 24.6 °C 14.6 °C 1016.1 hPa WSW 3.2 km/h 11.3 km/h 54% 0 mm
18:04 24.5 °C 14.3 °C 1016.1 hPa West 3.2 km/h 8 km/h 53% 0 mm
18:09 24.4 °C 14.2 °C 1016.1 hPa WSW 4.8 km/h 11.3 km/h 53% 0 mm
18:14 24.4 °C 14.6 °C 1016.1 hPa SW 4.8 km/h 11.3 km/h 54% 0 mm
18:19 24.4 °C 14.2 °C 1016.1 hPa SW 4.8 km/h 9.7 km/h 53% 0 mm
18:24 24.4 °C 14.5 °C 1016.1 hPa WSW 4.8 km/h 9.7 km/h 54% 0 mm
18:29 24.3 °C 14.4 °C 1016.1 hPa SSW 6.4 km/h 8 km/h 54% 0 mm
18:34 24.3 °C 14.7 °C 1016.1 hPa West 4.8 km/h 9.7 km/h 55% 0 mm
18:39 24.4 °C 15.1 °C 1016.1 hPa West 4.8 km/h 9.7 km/h 56% 0 mm
18:44 24.3 °C 15 °C 1016.1 hPa WNW 3.2 km/h 8 km/h 56% 0 mm
18:49 24.2 °C 14.3 °C 1016.1 hPa WNW 8 km/h 12.9 km/h 54% 0 mm
18:54 24.1 °C 14.4 °C 1016.1 hPa NW 3.2 km/h 9.7 km/h 55% 0 mm
18:59 23.9 °C 14.3 °C 1016.1 hPa West 4.8 km/h 8 km/h 55% 0 mm
19:04 23.7 °C 14.1 °C 1016.1 hPa West 3.2 km/h 8 km/h 55% 0 mm
19:09 23.5 °C 14.2 °C 1016.1 hPa WSW 3.2 km/h 6.4 km/h 56% 0 mm
19:14 23.5 °C 14.2 °C 1016.1 hPa WSW 3.2 km/h 8 km/h 56% 0 mm
19:19 23.4 °C 14.2 °C 1016.1 hPa West 3.2 km/h 8 km/h 56% 0 mm
19:24 23.2 °C 14.2 °C 1016.1 hPa West 3.2 km/h 8 km/h 57% 0 mm
19:29 23.1 °C 14.3 °C 1016.1 hPa West 3.2 km/h 8 km/h 58% 0 mm
19:34 22.9 °C 14.4 °C 1016.1 hPa West 1.6 km/h 4.8 km/h 59% 0 mm
19:39 22.7 °C 15.1 °C 1016.1 hPa West 4.8 km/h 4.8 km/h 62% 0 mm
19:44 22.6 °C 14.9 °C 1016.1 hPa West 1.6 km/h 4.8 km/h 62% 0 mm
19:49 22.5 °C 14.8 °C 1016.1 hPa Calm   4.8 km/h 62% 0 mm
19:54 22.4 °C 14.8 °C 1015.8 hPa Calm   1.6 km/h 62% 0 mm
19:59 22.4 °C 14.7 °C 1015.8 hPa Calm     62% 0 mm
20:04 22.3 °C 14.4 °C 1016.1 hPa West 1.6 km/h 3.2 km/h 61% 0 mm
20:09 22.2 °C 14.1 °C 1016.1 hPa West 1.6 km/h 6.4 km/h 60% 0 mm
20:14 22.1 °C 14 °C 1016.1 hPa West 1.6 km/h 6.4 km/h 60% 0 mm
20:19 21.9 °C 13.8 °C 1016.1 hPa West 1.6 km/h 4.8 km/h 60% 0 mm
20:24 21.8 °C 13.7 °C 1016.1 hPa West 1.6 km/h 4.8 km/h 60% 0 mm
20:29 21.6 °C 13.7 °C 1016.1 hPa Calm   3.2 km/h 61% 0 mm
20:34 21.4 °C 13.6 °C 1016.1 hPa West 3.2 km/h 4.8 km/h 61% 0 mm
20:39 21.3 °C 13.7 °C 1016.1 hPa Calm   3.2 km/h 62% 0 mm
20:44 21.2 °C 13.6 °C 1016.1 hPa Calm   3.2 km/h 62% 0 mm
20:49 20.9 °C 13.6 °C 1016.1 hPa Calm     63% 0 mm
20:54 20.8 °C 13.7 °C 1016.1 hPa Calm     64% 0 mm
20:59 20.6 °C 14 °C 1016.5 hPa Calm     66% 0 mm
21:04 20.4 °C 14.1 °C 1016.1 hPa Calm     67% 0 mm
21:09 20.3 °C 14.2 °C 1016.5 hPa Calm     68% 0 mm
21:14 20.3 °C 14.2 °C 1016.5 hPa Calm     68% 0 mm
21:19 20.2 °C 14.3 °C 1016.5 hPa Calm     69% 0 mm
21:24 20.1 °C 14.2 °C 1016.5 hPa Calm     69% 0 mm
21:29 19.9 °C 14.5 °C 1016.5 hPa Calm     71% 0 mm
21:34 19.8 °C 14.6 °C 1016.5 hPa Calm     72% 0 mm
21:39 19.7 °C 14.5 °C 1016.5 hPa Calm     72% 0 mm
21:44 19.5 °C 14.6 °C 1016.5 hPa Calm     73% 0 mm
21:49 19.3 °C 14.4 °C 1016.5 hPa Calm     73% 0 mm
21:54 19.3 °C 14.5 °C 1016.5 hPa Calm     74% 0 mm
21:59 19.1 °C 14.6 °C 1016.5 hPa Calm     75% 0 mm
22:04 18.9 °C 14.3 °C 1016.5 hPa Calm     75% 0 mm
22:09 18.7 °C 14.4 °C 1016.5 hPa Calm     76% 0 mm
22:14 18.6 °C 14.2 °C 1016.5 hPa Calm     76% 0 mm
22:19 18.4 °C 14.1 °C 1016.5 hPa Calm     76% 0 mm
22:24 18.3 °C 14.2 °C 1016.5 hPa Calm     77% 0 mm
22:29 18.3 °C 14.2 °C 1016.5 hPa Calm     77% 0 mm
22:34 18.2 °C 14.3 °C 1016.5 hPa Calm     78% 0 mm
22:39 18.2 °C 14.3 °C 1016.5 hPa Calm     78% 0 mm
22:44 18.1 °C 14.3 °C 1016.5 hPa Calm     79% 0 mm
22:49 18.2 °C 14.7 °C 1016.5 hPa Calm     80% 0 mm
22:54 18.2 °C 14.7 °C 1016.5 hPa Calm     80% 0 mm
22:59 18.2 °C 14.7 °C 1016.5 hPa Calm     80% 0 mm
23:04 18.1 °C 14.6 °C 1016.5 hPa Calm     80% 0 mm
23:09 18 °C 14.7 °C 1016.5 hPa Calm     81% 0 mm
23:14 18 °C 14.7 °C 1016.5 hPa Calm     81% 0 mm
23:19 18.1 °C 14.7 °C 1016.5 hPa Calm     81% 0 mm
23:24 18.2 °C 14.7 °C 1016.5 hPa Calm   4.8 km/h 80% 0 mm
23:29 18.1 °C 14.6 °C 1016.5 hPa Calm   1.6 km/h 80% 0 mm
23:34 18.1 °C 14.6 °C 1016.5 hPa Calm     80% 0 mm
23:39 17.9 °C 14.4 °C 1016.5 hPa Calm     80% 0 mm
23:44 17.9 °C 14.4 °C 1016.5 hPa Calm     80% 0 mm
23:49 17.9 °C 14.4 °C 1016.5 hPa Calm     80% 0 mm
23:54 17.8 °C 14.5 °C 1016.5 hPa Calm     81% 0 mm
23:59 17.7 °C 14.4 °C 1016.5 hPa Calm     81% 0 mm
Buffalo, New York, USA
Compliments of Weather Underground - 2.5 mb